x

New Dungeness - 17 Nm Ne Of Port Angeles, Wa (46088) Wave Buoy

6:20pm - Sun 17th Jun 2018 All times are PDT. -7 hours from GMT.

  • Sig Wave height 1.3ft
  • Peak Period 6s
  • Wind
    11mph, 13mph gusts
  • Sea Temp 52°f
  • Air Temp 63°f
  • Sea Pressure 1010.8mb
  • New Dungeness - 17 Nm Ne Of Port Angeles, Wa
  • New Dungeness - 17 Nm Ne Of Port Angeles, Wa

More Historic Weather Station data

Upgrade to MSW Pro to gain access to the past 30 days of data for over 8000 Wavebouys and Weather Stations around the globe.

Join

Comparision Forecast

View Surf forecast
   
Sun 06/17 6:20pm 1.3ft 6s  -  11 13 mph 1010.8mb 52f 63f
5:50pm 2ft 6s 5s 7 9 mph 1010.9mb 54f 64f
5:20pm 2ft 6s  -  4 7 mph 1011.2mb 52f 68f
4:50pm 2ft 7s 6s 4 4 mph 1011.4mb 52f 68f
4:20pm 1.6ft 7s  -  4 4 mph 1011.5mb 52f 65f
3:50pm  -   -   -  2 4 mph 1011.8mb 52f 63f
3:20pm  -   -   -   -  2 mph 1012.1mb 52f 63f
2:50pm  -   -   -  4 4 mph 1012.3mb 53f 64f
2:20pm  -   -   -  2 2 mph 1012.5mb 54f 62f
1:50pm  -   -   -  2 4 mph 1012.8mb 53f 61f
1:20pm  -   -   -  4 7 mph 1013.2mb 53f 60f
12:50pm  -   -   -  2 4 mph 1013.6mb 53f 60f
12:20pm  -   -   -  4 4 mph 1013.9mb 54f 63f
11:50am  -   -   -  4 4 mph 1014.2mb 53f 63f
11:20am  -   -   -  2 4 mph 1014.4mb 53f 59f
10:50am  -   -   -  4 4 mph 1014.6mb 53f 60f
10:20am  -   -   -  4 4 mph 1014.8mb 52f 60f
9:50am  -   -   -  2 4 mph 1015mb 51f 57f
9:20am  -   -   -  2 2 mph 1015mb 51f 56f
8:50am  -   -   -  2 4 mph 1015.1mb 51f 55f
8:20am  -   -   -  4 7 mph 1015.2mb 50f 53f
7:50am  -   -   -  4 7 mph 1015.3mb 50f 54f
7:20am  -   -   -  7 9 mph 1015.1mb 50f 58f
6:50am  -   -   -  7 9 mph 1015.1mb 50f 56f
6:20am  -   -   -  4 9 mph 1015mb 51f 58f
5:50am  -   -   -  7 9 mph 1015mb 50f 55f
5:20am  -   -   -  7 9 mph 1014.7mb 51f 54f
4:50am  -   -   -  9 9 mph 1014.6mb 51f 54f
4:20am  -   -   -  4 7 mph 1014.5mb 51f 53f
3:50am  -   -   -  4 4 mph 1014.5mb 51f 54f
3:20am  -   -   -  4 7 mph 1014.6mb 51f 55f
2:50am  -   -   -  4 4 mph 1014.3mb 51f 54f
2:20am  -   -   -  4 7 mph 1014mb 50f 55f
1:50am  -   -   -  4 7 mph 1014mb 50f 57f
1:20am  -   -   -  4 7 mph 1014mb 51f 55f
12:50am  -   -   -  7 7 mph 1013.9mb 51f 55f
12:20am  -   -   -  9 11 mph 1013.8mb 51f 55f
Sat 06/16 11:50pm  -   -   -  13 13 mph 1013.8mb 50f 55f
11:20pm  -   -   -  13 16 mph 1013.8mb 50f 55f
10:50pm  -   -   -  13 16 mph 1013.9mb 51f 55f
10:20pm  -   -   -  13 16 mph 1013.9mb 50f 56f
9:50pm  -   -   -  11 13 mph 1014.1mb 50f 56f
9:20pm  -   -   -  11 13 mph 1014mb 51f 56f
8:50pm  -   -   -  13 13 mph 1013.7mb 51f 56f
8:20pm  -   -   -  16 18 mph 1013.4mb 51f 57f
7:50pm  -   -   -  16 18 mph 1013.5mb 51f 56f
7:20pm  -   -   -  16 18 mph 1013.5mb 52f 57f
6:50pm  -   -   -  13 16 mph 1013.7mb 52f 58f
6:20pm  -   -   -  13 16 mph 1013.7mb 52f 57f
5:50pm  -   -   -  11 13 mph 1013.9mb 51f 56f
5:20pm  -   -   -  11 13 mph 1014.2mb 52f 56f
4:50pm  -   -   -  9 11 mph 1014.3mb 52f 58f
4:20pm  -   -   -  9 9 mph 1014.5mb 51f 56f
3:50pm  -   -   -  11 11 mph 1014.8mb 51f 57f
3:20pm  -   -   -  9 11 mph 1015.2mb 51f 56f
2:50pm  -   -   -  9 11 mph 1015.3mb 52f 55f
2:20pm  -   -   -  7 9 mph 1015.6mb 52f 54f
1:50pm  -   -   -  9 9 mph 1015.9mb 51f 54f
1:20pm  -   -   -  7 9 mph 1016.1mb 51f 53f
12:50pm  -   -   -  7 9 mph 1016.3mb 51f 53f
12:20pm  -   -   -  9 9 mph 1016.3mb 51f 53f
11:50am  -   -   -  7 9 mph 1016.4mb 51f 53f
11:20am  -   -   -  4 7 mph 1016.4mb 51f 56f
10:50am  -   -   -  7 7 mph 1016.2mb 51f 56f
10:20am  -   -   -  2 4 mph 1016.2mb 51f 56f
9:50am  -   -   -  4 4 mph 1016.3mb 51f 56f
9:20am  -   -   -  4 7 mph 1016.1mb 51f 53f
8:50am  -   -   -  7 7 mph 1016mb 50f 52f
8:20am  -   -   -  7 9 mph 1015.8mb 50f 51f
7:50am  -   -   -  9 11 mph 1015.4mb 50f 52f
7:20am  -   -   -  7 9 mph 1015.5mb 50f 53f
6:50am  -   -   -  9 11 mph 1015.2mb 50f 53f
6:20am  -   -   -  7 9 mph 1015mb 50f 52f
5:50am  -   -   -  7 9 mph 1014.7mb 50f 51f
5:20am  -   -   -  7 9 mph 1014.3mb 50f 51f
4:50am  -   -   -  9 11 mph 1014.1mb 50f 51f
4:20am  -   -   -  11 13 mph 1013.8mb 50f 51f
3:50am  -   -   -  11 13 mph 1014mb 50f 51f
3:20am  -   -   -  9 11 mph 1014.1mb 50f 51f
2:50am  -   -   -  7 7 mph 1014.1mb 51f 52f
2:20am  -   -   -  2 2 mph 1014.2mb 51f 53f
1:50am  -   -   -  2 4 mph 1014mb 50f 52f
1:20am  -   -   -  4 4 mph 1013.5mb 50f 52f
12:50am  -   -   -  2 4 mph 1013.2mb 50f 53f
12:20am  -   -   -  7 9 mph 1013mb 50f 55f
Fri 06/15 11:50pm  -   -   -  11 13 mph 1012.9mb 50f 54f
11:20pm  -   -   -  16 20 mph 1012.5mb 50f 55f
10:50pm  -   -   -  16 18 mph 1012.4mb 49f 54f
10:20pm  -   -   -  13 16 mph 1012.4mb 49f 53f
9:50pm  -   -   -  16 18 mph 1012.2mb 50f 53f
9:20pm  -   -   -  18 20 mph 1012mb 50f 52f
8:50pm  -   -   -  16 18 mph 1012.1mb 50f 52f
8:20pm  -   -   -  13 20 mph 1012.3mb 51f 53f
7:50pm  -   -   -  13 16 mph 1012.5mb 51f 52f
7:20pm  -   -   -  18 20 mph 1012.3mb 51f 53f
6:50pm  -   -   -  16 20 mph 1012.6mb 51f 53f
6:20pm  -   -   -  13 16 mph 1012.9mb 51f 53f
5:50pm  -   -   -  16 16 mph 1013.2mb 51f 53f
5:20pm  -   -   -  16 18 mph 1013.5mb 50f 52f
4:50pm  -   -   -  13 16 mph 1013.9mb 51f 52f
4:20pm  -   -   -  11 13 mph 1014.2mb 51f 52f
3:50pm  -   -   -  11 13 mph 1014.5mb 50f 52f
3:20pm  -   -   -  9 9 mph 1014.8mb 50f 52f
2:50pm  -   -   -  7 9 mph 1015.1mb 50f 52f
2:20pm  -   -   -  7 9 mph 1015.3mb 50f 52f
1:50pm  -   -   -  7 7 mph 1015.6mb 50f 52f
1:20pm  -   -   -  4 7 mph 1015.8mb 51f 52f
12:50pm  -   -   -  9 11 mph 1015.9mb 51f 52f
12:20pm  -   -   -  9 11 mph 1016mb 51f 52f
11:50am  -   -   -  9 11 mph 1016.1mb 51f 52f
11:20am  -   -   -  9 9 mph 1016.1mb 51f 52f
10:50am  -   -   -  7 9 mph 1016.2mb 50f 52f
10:20am  -   -   -  9 11 mph 1016.2mb 51f 52f
9:50am  -   -   -  9 9 mph 1016.2mb 50f 51f
9:20am  -   -   -  9 11 mph 1016.2mb 50f 51f
8:50am  -   -   -  9 11 mph 1016.1mb 50f 50f
8:20am  -   -   -  9 9 mph 1016mb 49f 51f
7:50am  -   -   -  11 13 mph 1015.8mb 50f 50f
7:20am  -   -   -  11 13 mph 1015.6mb 50f 50f
6:50am  -   -   -  11 13 mph 1015.5mb 50f 50f
6:20am  -   -   -  13 16 mph 1015.3mb 50f 50f
5:50am  -   -   -  13 16 mph 1015.1mb 50f 50f
5:20am  -   -   -  16 18 mph 1015.1mb 50f 51f
4:50am  -   -   -  16 18 mph 1015.1mb 50f 51f
4:20am  -   -   -  16 18 mph 1015.1mb 50f 51f
3:50am  -   -   -  16 20 mph 1015.2mb 50f 51f
3:20am  -   -   -  18 20 mph 1015.2mb 50f 51f
2:50am  -   -   -  18 20 mph 1015.1mb 50f 51f
2:20am  -   -   -  18 20 mph 1015.2mb 50f 51f
1:50am  -   -   -  18 20 mph 1015.2mb 50f 51f
1:20am  -   -   -  16 18 mph 1015.4mb 50f 52f
12:50am  -   -   -  16 18 mph 1015.5mb 50f 52f
12:20am  -   -   -  13 16 mph 1015.7mb 50f 52f
Thu 06/14 11:50pm  -   -   -  13 16 mph 1015.9mb 50f 52f
11:20pm  -   -   -  13 16 mph 1016mb 51f 52f
10:50pm  -   -   -  13 16 mph 1016.2mb 51f 52f
10:20pm  -   -   -  13 16 mph 1016.4mb 50f 52f
9:50pm  -   -   -  16 18 mph 1016.4mb 50f 52f
9:20pm  -   -   -  16 18 mph 1016.3mb 51f 52f
8:50pm  -   -   -  16 20 mph 1016.3mb 51f 52f
8:20pm  -   -   -  16 18 mph 1016.4mb 51f 53f
7:50pm  -   -   -  16 18 mph 1016.6mb 51f 53f
7:20pm  -   -   -  16 18 mph 1016.7mb 51f 53f
6:50pm  -   -   -  16 18 mph 1016.6mb 51f 53f
6:20pm  -   -   -  16 18 mph 1016.9mb 51f 54f
5:50pm  -   -   -  16 18 mph 1017mb 52f 53f
5:20pm  -   -   -  16 18 mph 1017.3mb 51f 54f
4:50pm  -   -   -  16 18 mph 1017.6mb 52f 54f
3:50pm  -   -   -  13 13 mph 1018.1mb 51f 54f
3:20pm  -   -   -  11 13 mph 1018.4mb 51f 55f
2:50pm  -   -   -  7 9 mph 1018.5mb 51f 54f
2:20pm  -   -   -  7 7 mph 1018.7mb 50f 53f
1:50pm  -   -   -  7 9 mph 1018.8mb 51f 54f
1:20pm  -   -   -  7 9 mph 1019mb 50f 53f
12:50pm  -   -   -  7 9 mph 1019.2mb 50f 54f
12:20pm  -   -   -  9 11 mph 1019mb 51f 54f
11:50am  -   -   -  7 9 mph 1019.1mb 51f 53f
11:20am  -   -   -  9 11 mph 1019.1mb 51f 53f
10:50am  -   -   -  11 16 mph 1018.9mb 51f 53f
10:20am  -   -   -  9 9 mph 1018.8mb 51f 53f
9:50am  -   -   -  9 11 mph 1018.8mb 50f 53f
9:20am  -   -   -  9 11 mph 1018.6mb 50f 52f
8:50am  -   -   -  9 13 mph 1018.4mb 50f 52f
8:20am  -   -   -  11 13 mph 1018.2mb 50f 52f
7:50am  -   -   -  13 18 mph 1017.8mb 50f 52f
7:20am  -   -   -  13 16 mph 1017.6mb 50f 52f
6:50am  -   -   -  13 16 mph 1017.3mb 49f 51f
6:20am  -   -   -  13 16 mph 1017.2mb 49f 51f
5:50am  -   -   -  13 18 mph 1017.1mb 49f 51f
5:20am  -   -   -  16 18 mph 1016.9mb 49f 51f
4:50am  -   -   -  16 18 mph 1016.6mb 49f 51f
4:20am  -   -   -  16 20 mph 1016.4mb 49f 52f
3:50am  -   -   -  16 20 mph 1016.2mb 50f 51f
3:20am  -   -   -  18 20 mph 1016.1mb 50f 51f
2:50am  -   -   -  18 20 mph 1015.9mb 50f 51f
2:20am  -   -   -  16 20 mph 1015.9mb 50f 51f